sensor_id;sensor_type;location;lat;lon;timestamp;P1;durP1;ratioP1;P2;durP2;ratioP2
50739;SDS011;36704;52.524;17.580;2022-12-20T00:02:13;50.53;;;22.52;;
50739;SDS011;36704;52.524;17.580;2022-12-20T00:05:00;61.40;;;24.65;;
50739;SDS011;36704;52.524;17.580;2022-12-20T00:07:47;57.75;;;26.25;;
50739;SDS011;36704;52.524;17.580;2022-12-20T00:10:34;48.13;;;21.98;;
50739;SDS011;36704;52.524;17.580;2022-12-20T00:13:22;50.20;;;23.65;;
50739;SDS011;36704;52.524;17.580;2022-12-20T00:16:09;59.15;;;22.90;;
50739;SDS011;36704;52.524;17.580;2022-12-20T00:19:02;45.28;;;20.77;;
50739;SDS011;36704;52.524;17.580;2022-12-20T00:21:53;52.60;;;23.08;;
50739;SDS011;36704;52.524;17.580;2022-12-20T00:24:39;50.15;;;24.20;;
50739;SDS011;36704;52.524;17.580;2022-12-20T00:27:26;50.35;;;22.48;;
50739;SDS011;36704;52.524;17.580;2022-12-20T00:30:12;59.80;;;22.83;;
50739;SDS011;36704;52.524;17.580;2022-12-20T00:33:00;58.35;;;22.73;;
50739;SDS011;36704;52.524;17.580;2022-12-20T00:35:47;51.17;;;22.92;;
50739;SDS011;36704;52.524;17.580;2022-12-20T00:38:34;50.03;;;22.42;;
50739;SDS011;36704;52.524;17.580;2022-12-20T00:41:21;57.30;;;23.95;;
50739;SDS011;36704;52.524;17.580;2022-12-20T00:44:12;55.10;;;23.63;;
50739;SDS011;36704;52.524;17.580;2022-12-20T00:46:59;47.92;;;20.10;;
50739;SDS011;36704;52.524;17.580;2022-12-20T00:49:45;51.83;;;22.10;;
50739;SDS011;36704;52.524;17.580;2022-12-20T00:52:32;51.25;;;21.55;;
50739;SDS011;36704;52.524;17.580;2022-12-20T00:55:18;44.63;;;20.15;;
50739;SDS011;36704;52.524;17.580;2022-12-20T00:58:04;52.70;;;22.13;;
50739;SDS011;36704;52.524;17.580;2022-12-20T01:00:51;50.03;;;21.17;;
50739;SDS011;36704;52.524;17.580;2022-12-20T01:03:41;51.33;;;21.75;;
50739;SDS011;36704;52.524;17.580;2022-12-20T01:06:30;51.72;;;21.88;;
50739;SDS011;36704;52.524;17.580;2022-12-20T01:09:17;49.05;;;20.73;;
50739;SDS011;36704;52.524;17.580;2022-12-20T01:12:05;52.55;;;21.95;;
50739;SDS011;36704;52.524;17.580;2022-12-20T01:14:52;46.85;;;21.23;;
50739;SDS011;36704;52.524;17.580;2022-12-20T01:17:39;47.40;;;20.98;;
50739;SDS011;36704;52.524;17.580;2022-12-20T01:20:25;48.83;;;21.77;;
50739;SDS011;36704;52.524;17.580;2022-12-20T01:23:11;50.22;;;21.83;;
50739;SDS011;36704;52.524;17.580;2022-12-20T01:25:59;45.60;;;20.73;;
50739;SDS011;36704;52.524;17.580;2022-12-20T01:28:47;50.65;;;21.55;;
50739;SDS011;36704;52.524;17.580;2022-12-20T01:31:34;51.80;;;22.40;;
50739;SDS011;36704;52.524;17.580;2022-12-20T01:34:21;46.45;;;20.65;;
50739;SDS011;36704;52.524;17.580;2022-12-20T01:37:08;53.28;;;20.63;;
50739;SDS011;36704;52.524;17.580;2022-12-20T01:39:55;48.90;;;19.55;;
50739;SDS011;36704;52.524;17.580;2022-12-20T01:42:42;47.33;;;20.73;;
50739;SDS011;36704;52.524;17.580;2022-12-20T01:45:29;48.83;;;20.95;;
50739;SDS011;36704;52.524;17.580;2022-12-20T01:48:17;49.35;;;20.55;;
50739;SDS011;36704;52.524;17.580;2022-12-20T01:51:07;52.30;;;21.90;;
50739;SDS011;36704;52.524;17.580;2022-12-20T01:53:55;48.65;;;20.52;;
50739;SDS011;36704;52.524;17.580;2022-12-20T01:56:47;47.42;;;20.40;;
50739;SDS011;36704;52.524;17.580;2022-12-20T01:59:36;47.38;;;21.77;;
50739;SDS011;36704;52.524;17.580;2022-12-20T02:02:24;45.58;;;20.75;;
50739;SDS011;36704;52.524;17.580;2022-12-20T02:05:12;49.60;;;20.85;;
50739;SDS011;36704;52.524;17.580;2022-12-20T02:08:03;47.50;;;20.83;;
50739;SDS011;36704;52.524;17.580;2022-12-20T02:13:46;51.97;;;21.33;;
50739;SDS011;36704;52.524;17.580;2022-12-20T02:16:47;43.78;;;21.13;;
50739;SDS011;36704;52.524;17.580;2022-12-20T02:32:08;46.58;;;21.08;;
50739;SDS011;36704;52.524;17.580;2022-12-20T02:35:02;62.50;;;28.55;;
50739;SDS011;36704;52.524;17.580;2022-12-20T02:37:54;172.32;;;75.22;;
50739;SDS011;36704;52.524;17.580;2022-12-20T02:40:41;266.58;;;126.43;;
50739;SDS011;36704;52.524;17.580;2022-12-20T02:43:29;138.48;;;65.60;;
50739;SDS011;36704;52.524;17.580;2022-12-20T02:46:35;88.15;;;46.67;;
50739;SDS011;36704;52.524;17.580;2022-12-20T02:49:25;55.47;;;26.98;;
50739;SDS011;36704;52.524;17.580;2022-12-20T02:52:14;43.63;;;21.05;;
50739;SDS011;36704;52.524;17.580;2022-12-20T02:55:01;51.78;;;23.10;;
50739;SDS011;36704;52.524;17.580;2022-12-20T02:57:51;53.83;;;23.27;;
50739;SDS011;36704;52.524;17.580;2022-12-20T03:00:47;50.78;;;22.45;;
50739;SDS011;36704;52.524;17.580;2022-12-20T03:03:35;44.88;;;20.40;;
50739;SDS011;36704;52.524;17.580;2022-12-20T03:06:22;48.60;;;23.00;;
50739;SDS011;36704;52.524;17.580;2022-12-20T03:09:09;43.05;;;19.60;;
50739;SDS011;36704;52.524;17.580;2022-12-20T03:11:56;41.53;;;19.67;;
50739;SDS011;36704;52.524;17.580;2022-12-20T03:14:43;47.75;;;19.92;;
50739;SDS011;36704;52.524;17.580;2022-12-20T03:17:32;46.55;;;19.98;;
50739;SDS011;36704;52.524;17.580;2022-12-20T03:20:18;45.97;;;20.35;;
50739;SDS011;36704;52.524;17.580;2022-12-20T03:23:05;40.15;;;20.02;;
50739;SDS011;36704;52.524;17.580;2022-12-20T03:25:53;45.72;;;19.80;;
50739;SDS011;36704;52.524;17.580;2022-12-20T03:28:52;45.30;;;19.98;;
50739;SDS011;36704;52.524;17.580;2022-12-20T03:31:40;41.25;;;19.00;;
50739;SDS011;36704;52.524;17.580;2022-12-20T03:34:28;45.30;;;19.67;;
50739;SDS011;36704;52.524;17.580;2022-12-20T03:37:15;42.45;;;19.52;;
50739;SDS011;36704;52.524;17.580;2022-12-20T03:40:06;43.08;;;20.48;;
50739;SDS011;36704;52.524;17.580;2022-12-20T03:42:53;48.25;;;21.33;;
50739;SDS011;36704;52.524;17.580;2022-12-20T03:45:40;43.03;;;19.70;;
50739;SDS011;36704;52.524;17.580;2022-12-20T03:48:27;48.42;;;19.67;;
50739;SDS011;36704;52.524;17.580;2022-12-20T03:51:14;47.35;;;20.13;;
50739;SDS011;36704;52.524;17.580;2022-12-20T03:54:01;42.67;;;20.08;;
50739;SDS011;36704;52.524;17.580;2022-12-20T03:57:08;43.88;;;20.90;;
50739;SDS011;36704;52.524;17.580;2022-12-20T03:59:54;41.30;;;18.77;;
50739;SDS011;36704;52.524;17.580;2022-12-20T04:02:41;42.85;;;19.95;;
50739;SDS011;36704;52.524;17.580;2022-12-20T04:05:30;37.83;;;18.73;;
50739;SDS011;36704;52.524;17.580;2022-12-20T04:08:17;43.85;;;20.88;;
50739;SDS011;36704;52.524;17.580;2022-12-20T04:11:05;42.47;;;20.35;;
50739;SDS011;36704;52.524;17.580;2022-12-20T04:14:30;41.78;;;20.83;;
50739;SDS011;36704;52.524;17.580;2022-12-20T04:17:17;46.47;;;20.65;;
50739;SDS011;36704;52.524;17.580;2022-12-20T04:20:06;43.50;;;20.73;;
50739;SDS011;36704;52.524;17.580;2022-12-20T04:23:27;42.20;;;21.35;;
50739;SDS011;36704;52.524;17.580;2022-12-20T04:26:17;45.75;;;21.00;;
50739;SDS011;36704;52.524;17.580;2022-12-20T04:29:05;42.78;;;20.08;;
50739;SDS011;36704;52.524;17.580;2022-12-20T04:31:51;43.28;;;21.25;;
50739;SDS011;36704;52.524;17.580;2022-12-20T04:34:39;48.22;;;21.85;;
50739;SDS011;36704;52.524;17.580;2022-12-20T04:37:27;53.85;;;24.50;;
50739;SDS011;36704;52.524;17.580;2022-12-20T04:40:14;49.00;;;22.02;;
50739;SDS011;36704;52.524;17.580;2022-12-20T04:43:07;49.45;;;25.27;;
50739;SDS011;36704;52.524;17.580;2022-12-20T04:45:54;47.22;;;21.80;;
50739;SDS011;36704;52.524;17.580;2022-12-20T04:48:44;41.10;;;20.20;;
50739;SDS011;36704;52.524;17.580;2022-12-20T04:51:42;45.65;;;20.35;;
50739;SDS011;36704;52.524;17.580;2022-12-20T04:54:30;42.72;;;19.38;;
50739;SDS011;36704;52.524;17.580;2022-12-20T04:57:29;41.88;;;19.00;;
50739;SDS011;36704;52.524;17.580;2022-12-20T05:00:17;45.83;;;22.38;;
50739;SDS011;36704;52.524;17.580;2022-12-20T05:03:10;53.97;;;28.40;;
50739;SDS011;36704;52.524;17.580;2022-12-20T05:05:56;47.80;;;24.92;;
50739;SDS011;36704;52.524;17.580;2022-12-20T05:08:43;50.03;;;25.45;;
50739;SDS011;36704;52.524;17.580;2022-12-20T05:11:30;47.92;;;23.60;;
50739;SDS011;36704;52.524;17.580;2022-12-20T05:14:17;40.33;;;20.05;;
50739;SDS011;36704;52.524;17.580;2022-12-20T05:17:04;39.55;;;19.17;;
50739;SDS011;36704;52.524;17.580;2022-12-20T05:19:51;41.50;;;19.00;;
50739;SDS011;36704;52.524;17.580;2022-12-20T05:22:39;43.75;;;19.40;;
50739;SDS011;36704;52.524;17.580;2022-12-20T05:25:46;44.35;;;20.33;;
50739;SDS011;36704;52.524;17.580;2022-12-20T05:28:52;45.58;;;20.30;;
50739;SDS011;36704;52.524;17.580;2022-12-20T05:31:39;49.38;;;22.48;;
50739;SDS011;36704;52.524;17.580;2022-12-20T05:34:29;36.43;;;18.63;;
50739;SDS011;36704;52.524;17.580;2022-12-20T05:37:16;38.97;;;19.02;;
50739;SDS011;36704;52.524;17.580;2022-12-20T05:40:05;36.60;;;17.15;;
50739;SDS011;36704;52.524;17.580;2022-12-20T05:42:55;37.72;;;17.40;;
50739;SDS011;36704;52.524;17.580;2022-12-20T05:45:51;45.17;;;21.17;;
50739;SDS011;36704;52.524;17.580;2022-12-20T05:48:51;43.53;;;20.95;;
50739;SDS011;36704;52.524;17.580;2022-12-20T05:51:38;49.60;;;22.92;;
50739;SDS011;36704;52.524;17.580;2022-12-20T05:54:35;47.50;;;23.23;;
50739;SDS011;36704;52.524;17.580;2022-12-20T05:57:48;40.80;;;19.20;;
50739;SDS011;36704;52.524;17.580;2022-12-20T06:00:46;43.53;;;20.00;;
50739;SDS011;36704;52.524;17.580;2022-12-20T06:03:34;42.65;;;18.33;;
50739;SDS011;36704;52.524;17.580;2022-12-20T06:06:24;43.22;;;20.33;;
50739;SDS011;36704;52.524;17.580;2022-12-20T06:09:11;52.83;;;24.50;;
50739;SDS011;36704;52.524;17.580;2022-12-20T06:12:06;68.10;;;30.60;;
50739;SDS011;36704;52.524;17.580;2022-12-20T06:14:53;67.65;;;28.77;;
50739;SDS011;36704;52.524;17.580;2022-12-20T06:17:49;54.83;;;24.88;;
50739;SDS011;36704;52.524;17.580;2022-12-20T06:20:39;45.45;;;21.63;;
50739;SDS011;36704;52.524;17.580;2022-12-20T06:23:35;54.67;;;23.42;;
50739;SDS011;36704;52.524;17.580;2022-12-20T06:26:25;56.97;;;22.83;;
50739;SDS011;36704;52.524;17.580;2022-12-20T06:29:31;60.67;;;24.08;;
50739;SDS011;36704;52.524;17.580;2022-12-20T06:32:26;51.65;;;22.23;;
50739;SDS011;36704;52.524;17.580;2022-12-20T06:35:12;49.50;;;23.27;;
50739;SDS011;36704;52.524;17.580;2022-12-20T06:38:00;49.35;;;21.50;;
50739;SDS011;36704;52.524;17.580;2022-12-20T06:40:50;91.03;;;42.33;;
50739;SDS011;36704;52.524;17.580;2022-12-20T06:43:37;51.65;;;25.63;;
50739;SDS011;36704;52.524;17.580;2022-12-20T06:46:24;60.35;;;32.13;;
50739;SDS011;36704;52.524;17.580;2022-12-20T06:49:16;55.97;;;30.85;;
50739;SDS011;36704;52.524;17.580;2022-12-20T06:52:03;53.65;;;26.73;;
50739;SDS011;36704;52.524;17.580;2022-12-20T06:54:59;72.03;;;39.05;;
50739;SDS011;36704;52.524;17.580;2022-12-20T06:57:48;60.40;;;31.50;;
50739;SDS011;36704;52.524;17.580;2022-12-20T07:00:35;63.78;;;35.75;;
50739;SDS011;36704;52.524;17.580;2022-12-20T07:03:21;48.10;;;23.02;;
50739;SDS011;36704;52.524;17.580;2022-12-20T07:06:08;50.67;;;23.05;;
50739;SDS011;36704;52.524;17.580;2022-12-20T07:08:55;77.70;;;39.42;;
50739;SDS011;36704;52.524;17.580;2022-12-20T07:11:42;69.28;;;32.10;;
50739;SDS011;36704;52.524;17.580;2022-12-20T07:14:28;86.40;;;31.30;;
50739;SDS011;36704;52.524;17.580;2022-12-20T07:17:15;129.82;;;38.45;;
50739;SDS011;36704;52.524;17.580;2022-12-20T07:20:02;172.35;;;71.32;;
50739;SDS011;36704;52.524;17.580;2022-12-20T07:22:58;90.43;;;37.45;;
50739;SDS011;36704;52.524;17.580;2022-12-20T07:25:52;54.63;;;26.92;;
50739;SDS011;36704;52.524;17.580;2022-12-20T07:28:42;52.30;;;26.92;;
50739;SDS011;36704;52.524;17.580;2022-12-20T07:31:29;54.88;;;25.67;;
50739;SDS011;36704;52.524;17.580;2022-12-20T07:34:17;63.92;;;29.77;;
50739;SDS011;36704;52.524;17.580;2022-12-20T07:37:04;78.25;;;38.42;;
50739;SDS011;36704;52.524;17.580;2022-12-20T07:39:52;63.22;;;31.23;;
50739;SDS011;36704;52.524;17.580;2022-12-20T07:42:38;52.35;;;25.05;;
50739;SDS011;36704;52.524;17.580;2022-12-20T07:45:33;55.83;;;28.23;;
50739;SDS011;36704;52.524;17.580;2022-12-20T07:48:20;65.57;;;30.67;;
50739;SDS011;36704;52.524;17.580;2022-12-20T07:51:14;85.43;;;36.50;;
50739;SDS011;36704;52.524;17.580;2022-12-20T07:54:03;89.82;;;40.72;;
50739;SDS011;36704;52.524;17.580;2022-12-20T07:56:53;240.82;;;130.25;;
50739;SDS011;36704;52.524;17.580;2022-12-20T07:59:44;93.30;;;45.92;;
50739;SDS011;36704;52.524;17.580;2022-12-20T08:02:36;121.25;;;60.28;;
50739;SDS011;36704;52.524;17.580;2022-12-20T08:08:12;67.40;;;35.22;;
50739;SDS011;36704;52.524;17.580;2022-12-20T08:10:58;77.55;;;37.40;;
50739;SDS011;36704;52.524;17.580;2022-12-20T08:13:45;77.93;;;34.47;;
50739;SDS011;36704;52.524;17.580;2022-12-20T08:16:37;145.10;;;48.42;;
50739;SDS011;36704;52.524;17.580;2022-12-20T08:19:24;91.53;;;35.13;;
50739;SDS011;36704;52.524;17.580;2022-12-20T08:22:17;100.07;;;37.60;;
50739;SDS011;36704;52.524;17.580;2022-12-20T08:25:05;86.30;;;34.38;;
50739;SDS011;36704;52.524;17.580;2022-12-20T08:27:52;181.57;;;53.42;;
50739;SDS011;36704;52.524;17.580;2022-12-20T08:30:38;301.35;;;83.68;;
50739;SDS011;36704;52.524;17.580;2022-12-20T08:33:25;280.85;;;76.03;;
50739;SDS011;36704;52.524;17.580;2022-12-20T08:36:13;203.63;;;57.28;;
50739;SDS011;36704;52.524;17.580;2022-12-20T08:39:02;293.98;;;80.50;;
50739;SDS011;36704;52.524;17.580;2022-12-20T08:41:50;374.30;;;94.32;;
50739;SDS011;36704;52.524;17.580;2022-12-20T08:44:36;125.13;;;40.50;;
50739;SDS011;36704;52.524;17.580;2022-12-20T08:47:24;153.45;;;45.55;;
50739;SDS011;36704;52.524;17.580;2022-12-20T08:50:14;144.50;;;44.40;;
50739;SDS011;36704;52.524;17.580;2022-12-20T08:53:01;294.52;;;75.32;;
50739;SDS011;36704;52.524;17.580;2022-12-20T08:55:48;205.73;;;56.13;;
50739;SDS011;36704;52.524;17.580;2022-12-20T08:58:35;279.25;;;74.93;;
50739;SDS011;36704;52.524;17.580;2022-12-20T09:01:21;239.85;;;65.50;;
50739;SDS011;36704;52.524;17.580;2022-12-20T09:04:09;172.15;;;47.90;;
50739;SDS011;36704;52.524;17.580;2022-12-20T09:06:56;220.52;;;65.25;;
50739;SDS011;36704;52.524;17.580;2022-12-20T09:09:43;161.45;;;47.33;;
50739;SDS011;36704;52.524;17.580;2022-12-20T09:12:29;150.27;;;48.00;;
50739;SDS011;36704;52.524;17.580;2022-12-20T09:15:17;155.20;;;48.38;;
50739;SDS011;36704;52.524;17.580;2022-12-20T09:18:04;168.70;;;54.72;;
50739;SDS011;36704;52.524;17.580;2022-12-20T09:20:53;97.60;;;33.97;;
50739;SDS011;36704;52.524;17.580;2022-12-20T09:23:39;106.82;;;36.63;;
50739;SDS011;36704;52.524;17.580;2022-12-20T09:26:27;94.03;;;32.70;;
50739;SDS011;36704;52.524;17.580;2022-12-20T09:29:13;125.57;;;42.45;;
50739;SDS011;36704;52.524;17.580;2022-12-20T09:32:11;110.00;;;38.95;;
50739;SDS011;36704;52.524;17.580;2022-12-20T09:34:58;159.18;;;55.08;;
50739;SDS011;36704;52.524;17.580;2022-12-20T09:37:45;118.47;;;43.08;;
50739;SDS011;36704;52.524;17.580;2022-12-20T09:40:31;126.93;;;45.58;;
50739;SDS011;36704;52.524;17.580;2022-12-20T09:43:18;109.45;;;40.40;;
50739;SDS011;36704;52.524;17.580;2022-12-20T09:46:09;76.57;;;29.90;;
50739;SDS011;36704;52.524;17.580;2022-12-20T09:48:58;127.68;;;40.60;;
50739;SDS011;36704;52.524;17.580;2022-12-20T10:00:50;135.95;;;47.78;;
50739;SDS011;36704;52.524;17.580;2022-12-20T10:03:39;91.60;;;35.67;;
50739;SDS011;36704;52.524;17.580;2022-12-20T10:19:04;85.57;;;38.22;;
50739;SDS011;36704;52.524;17.580;2022-12-20T10:25:28;70.50;;;31.15;;
50739;SDS011;36704;52.524;17.580;2022-12-20T10:28:13;72.30;;;29.95;;
50739;SDS011;36704;52.524;17.580;2022-12-20T10:31:02;55.33;;;27.58;;
50739;SDS011;36704;52.524;17.580;2022-12-20T10:33:56;57.47;;;26.60;;
50739;SDS011;36704;52.524;17.580;2022-12-20T10:36:42;57.33;;;25.92;;
50739;SDS011;36704;52.524;17.580;2022-12-20T10:39:41;68.10;;;30.10;;
50739;SDS011;36704;52.524;17.580;2022-12-20T10:42:37;75.22;;;35.55;;
50739;SDS011;36704;52.524;17.580;2022-12-20T10:45:31;66.60;;;29.50;;
50739;SDS011;36704;52.524;17.580;2022-12-20T10:51:21;70.03;;;33.30;;
50739;SDS011;36704;52.524;17.580;2022-12-20T10:54:19;66.82;;;33.35;;
50739;SDS011;36704;52.524;17.580;2022-12-20T11:00:04;69.32;;;33.72;;
50739;SDS011;36704;52.524;17.580;2022-12-20T11:03:09;58.83;;;30.67;;
50739;SDS011;36704;52.524;17.580;2022-12-20T11:05:59;51.15;;;25.73;;
50739;SDS011;36704;52.524;17.580;2022-12-20T11:08:49;50.95;;;26.27;;
50739;SDS011;36704;52.524;17.580;2022-12-20T11:14:44;59.80;;;28.10;;
50739;SDS011;36704;52.524;17.580;2022-12-20T11:17:35;54.53;;;25.83;;
50739;SDS011;36704;52.524;17.580;2022-12-20T11:20:24;55.38;;;24.98;;
50739;SDS011;36704;52.524;17.580;2022-12-20T11:26:12;58.58;;;25.25;;
50739;SDS011;36704;52.524;17.580;2022-12-20T11:53:20;169.57;;;55.80;;
50739;SDS011;36704;52.524;17.580;2022-12-20T11:56:16;59.60;;;28.40;;
50739;SDS011;36704;52.524;17.580;2022-12-20T12:02:19;78.22;;;33.40;;
50739;SDS011;36704;52.524;17.580;2022-12-20T12:05:25;83.05;;;35.92;;
50739;SDS011;36704;52.524;17.580;2022-12-20T12:08:31;92.40;;;36.20;;
50739;SDS011;36704;52.524;17.580;2022-12-20T12:11:31;98.40;;;37.42;;
50739;SDS011;36704;52.524;17.580;2022-12-20T12:23:30;72.85;;;30.77;;
50739;SDS011;36704;52.524;17.580;2022-12-20T12:26:30;68.32;;;31.30;;
50739;SDS011;36704;52.524;17.580;2022-12-20T12:29:20;66.15;;;28.73;;
50739;SDS011;36704;52.524;17.580;2022-12-20T12:32:16;66.13;;;30.25;;
50739;SDS011;36704;52.524;17.580;2022-12-20T12:47:54;61.33;;;28.00;;
50739;SDS011;36704;52.524;17.580;2022-12-20T12:50:41;70.57;;;29.92;;
50739;SDS011;36704;52.524;17.580;2022-12-20T12:53:34;65.20;;;30.00;;
50739;SDS011;36704;52.524;17.580;2022-12-20T13:02:24;70.68;;;30.85;;
50739;SDS011;36704;52.524;17.580;2022-12-20T13:08:00;57.38;;;24.85;;
50739;SDS011;36704;52.524;17.580;2022-12-20T13:13:33;281.15;;;92.78;;
50739;SDS011;36704;52.524;17.580;2022-12-20T13:16:27;85.00;;;37.15;;
50739;SDS011;36704;52.524;17.580;2022-12-20T13:19:35;81.43;;;36.55;;
50739;SDS011;36704;52.524;17.580;2022-12-20T13:22:23;90.13;;;39.78;;
50739;SDS011;36704;52.524;17.580;2022-12-20T13:25:27;147.13;;;60.88;;
50739;SDS011;36704;52.524;17.580;2022-12-20T13:34:01;87.63;;;38.33;;
50739;SDS011;36704;52.524;17.580;2022-12-20T13:36:47;80.80;;;32.63;;
50739;SDS011;36704;52.524;17.580;2022-12-20T13:39:46;71.53;;;32.22;;
50739;SDS011;36704;52.524;17.580;2022-12-20T13:42:33;101.90;;;45.45;;
50739;SDS011;36704;52.524;17.580;2022-12-20T13:45:23;99.00;;;44.03;;
50739;SDS011;36704;52.524;17.580;2022-12-20T13:48:11;94.63;;;39.90;;
50739;SDS011;36704;52.524;17.580;2022-12-20T13:51:01;113.50;;;43.97;;
50739;SDS011;36704;52.524;17.580;2022-12-20T13:53:51;102.80;;;39.35;;
50739;SDS011;36704;52.524;17.580;2022-12-20T13:56:41;108.95;;;39.65;;
50739;SDS011;36704;52.524;17.580;2022-12-20T13:59:30;103.15;;;39.00;;
50739;SDS011;36704;52.524;17.580;2022-12-20T14:02:18;108.07;;;39.75;;
50739;SDS011;36704;52.524;17.580;2022-12-20T14:08:14;69.32;;;30.55;;
50739;SDS011;36704;52.524;17.580;2022-12-20T14:11:40;86.18;;;34.08;;
50739;SDS011;36704;52.524;17.580;2022-12-20T14:14:20;87.55;;;38.25;;
50739;SDS011;36704;52.524;17.580;2022-12-20T14:20:15;173.90;;;54.55;;
50739;SDS011;36704;52.524;17.580;2022-12-20T14:23:03;137.48;;;47.25;;
50739;SDS011;36704;52.524;17.580;2022-12-20T14:28:48;120.90;;;44.47;;
50739;SDS011;36704;52.524;17.580;2022-12-20T14:31:37;139.18;;;44.92;;
50739;SDS011;36704;52.524;17.580;2022-12-20T14:34:30;106.90;;;39.75;;
50739;SDS011;36704;52.524;17.580;2022-12-20T14:37:26;108.78;;;43.03;;
50739;SDS011;36704;52.524;17.580;2022-12-20T14:40:20;140.20;;;44.00;;
50739;SDS011;36704;52.524;17.580;2022-12-20T14:43:13;101.43;;;38.67;;
50739;SDS011;36704;52.524;17.580;2022-12-20T14:46:17;86.47;;;37.03;;
50739;SDS011;36704;52.524;17.580;2022-12-20T14:55:01;70.22;;;29.48;;
50739;SDS011;36704;52.524;17.580;2022-12-20T14:58:23;80.47;;;32.15;;
50739;SDS011;36704;52.524;17.580;2022-12-20T15:01:19;93.38;;;34.42;;
50739;SDS011;36704;52.524;17.580;2022-12-20T15:04:23;117.88;;;40.05;;
50739;SDS011;36704;52.524;17.580;2022-12-20T15:07:29;110.00;;;39.80;;
50739;SDS011;36704;52.524;17.580;2022-12-20T15:10:17;135.38;;;45.05;;
50739;SDS011;36704;52.524;17.580;2022-12-20T15:13:06;111.53;;;42.60;;
50739;SDS011;36704;52.524;17.580;2022-12-20T15:15:57;201.18;;;72.38;;
50739;SDS011;36704;52.524;17.580;2022-12-20T15:18:57;233.00;;;77.68;;
50739;SDS011;36704;52.524;17.580;2022-12-20T15:21:47;129.15;;;50.47;;
50739;SDS011;36704;52.524;17.580;2022-12-20T15:24:34;92.53;;;37.22;;
50739;SDS011;36704;52.524;17.580;2022-12-20T15:27:32;89.53;;;34.67;;
50739;SDS011;36704;52.524;17.580;2022-12-20T15:30:22;89.18;;;35.63;;
50739;SDS011;36704;52.524;17.580;2022-12-20T15:33:12;128.32;;;45.50;;
50739;SDS011;36704;52.524;17.580;2022-12-20T15:36:05;119.88;;;43.80;;
50739;SDS011;36704;52.524;17.580;2022-12-20T15:38:53;98.03;;;38.13;;
50739;SDS011;36704;52.524;17.580;2022-12-20T15:42:00;99.22;;;38.15;;
50739;SDS011;36704;52.524;17.580;2022-12-20T15:44:50;80.60;;;32.33;;
50739;SDS011;36704;52.524;17.580;2022-12-20T15:47:37;98.30;;;38.00;;
50739;SDS011;36704;52.524;17.580;2022-12-20T15:50:24;94.75;;;40.03;;
50739;SDS011;36704;52.524;17.580;2022-12-20T15:53:22;104.07;;;41.85;;
50739;SDS011;36704;52.524;17.580;2022-12-20T15:56:22;107.30;;;42.63;;
50739;SDS011;36704;52.524;17.580;2022-12-20T15:59:13;209.77;;;85.03;;
50739;SDS011;36704;52.524;17.580;2022-12-20T16:02:34;204.45;;;82.97;;
50739;SDS011;36704;52.524;17.580;2022-12-20T16:05:30;110.75;;;43.58;;
50739;SDS011;36704;52.524;17.580;2022-12-20T16:08:21;147.70;;;57.42;;
50739;SDS011;36704;52.524;17.580;2022-12-20T16:11:28;138.98;;;52.42;;
50739;SDS011;36704;52.524;17.580;2022-12-20T16:14:55;142.02;;;54.53;;
50739;SDS011;36704;52.524;17.580;2022-12-20T16:17:45;114.57;;;44.55;;
50739;SDS011;36704;52.524;17.580;2022-12-20T16:20:34;147.73;;;50.08;;
50739;SDS011;36704;52.524;17.580;2022-12-20T16:23:31;130.65;;;55.03;;
50739;SDS011;36704;52.524;17.580;2022-12-20T16:26:21;140.88;;;59.00;;
50739;SDS011;36704;52.524;17.580;2022-12-20T16:29:11;146.80;;;52.47;;
50739;SDS011;36704;52.524;17.580;2022-12-20T16:32:01;135.85;;;54.63;;
50739;SDS011;36704;52.524;17.580;2022-12-20T16:34:52;106.43;;;42.92;;
50739;SDS011;36704;52.524;17.580;2022-12-20T16:37:43;94.13;;;37.90;;
50739;SDS011;36704;52.524;17.580;2022-12-20T16:40:37;72.40;;;31.45;;
50739;SDS011;36704;52.524;17.580;2022-12-20T16:43:23;91.10;;;37.33;;
50739;SDS011;36704;52.524;17.580;2022-12-20T16:46:11;83.05;;;35.22;;
50739;SDS011;36704;52.524;17.580;2022-12-20T16:49:02;83.13;;;32.22;;
50739;SDS011;36704;52.524;17.580;2022-12-20T16:51:49;106.30;;;42.45;;
50739;SDS011;36704;52.524;17.580;2022-12-20T16:54:35;85.43;;;37.25;;
50739;SDS011;36704;52.524;17.580;2022-12-20T16:57:22;86.97;;;34.70;;
50739;SDS011;36704;52.524;17.580;2022-12-20T17:00:20;76.28;;;32.47;;
50739;SDS011;36704;52.524;17.580;2022-12-20T17:03:11;75.03;;;31.63;;
50739;SDS011;36704;52.524;17.580;2022-12-20T17:06:01;97.80;;;37.58;;
50739;SDS011;36704;52.524;17.580;2022-12-20T17:08:49;93.55;;;39.28;;
50739;SDS011;36704;52.524;17.580;2022-12-20T17:11:38;92.95;;;35.85;;
50739;SDS011;36704;52.524;17.580;2022-12-20T17:14:28;99.65;;;39.13;;
50739;SDS011;36704;52.524;17.580;2022-12-20T17:17:20;96.40;;;41.75;;
50739;SDS011;36704;52.524;17.580;2022-12-20T17:20:07;133.57;;;52.95;;
50739;SDS011;36704;52.524;17.580;2022-12-20T17:22:55;131.13;;;59.00;;
50739;SDS011;36704;52.524;17.580;2022-12-20T17:26:00;91.50;;;39.17;;
50739;SDS011;36704;52.524;17.580;2022-12-20T17:28:47;91.65;;;38.45;;
50739;SDS011;36704;52.524;17.580;2022-12-20T17:31:37;87.20;;;33.60;;
50739;SDS011;36704;52.524;17.580;2022-12-20T17:34:27;107.32;;;41.67;;
50739;SDS011;36704;52.524;17.580;2022-12-20T17:37:15;93.18;;;40.13;;
50739;SDS011;36704;52.524;17.580;2022-12-20T17:40:03;98.43;;;38.00;;
50739;SDS011;36704;52.524;17.580;2022-12-20T17:42:50;94.80;;;37.47;;
50739;SDS011;36704;52.524;17.580;2022-12-20T17:45:38;117.55;;;48.20;;
50739;SDS011;36704;52.524;17.580;2022-12-20T17:48:39;81.20;;;34.30;;
50739;SDS011;36704;52.524;17.580;2022-12-20T17:51:29;85.25;;;34.97;;
50739;SDS011;36704;52.524;17.580;2022-12-20T17:54:19;89.20;;;34.83;;
50739;SDS011;36704;52.524;17.580;2022-12-20T17:57:12;108.28;;;42.83;;
50739;SDS011;36704;52.524;17.580;2022-12-20T18:00:08;66.57;;;30.27;;
50739;SDS011;36704;52.524;17.580;2022-12-20T18:03:04;112.00;;;51.80;;
50739;SDS011;36704;52.524;17.580;2022-12-20T18:05:50;80.50;;;35.00;;
50739;SDS011;36704;52.524;17.580;2022-12-20T19:24:41;87.70;;;35.90;;
50739;SDS011;36704;52.524;17.580;2022-12-20T19:27:28;80.03;;;33.25;;
50739;SDS011;36704;52.524;17.580;2022-12-20T19:30:14;80.45;;;36.28;;
50739;SDS011;36704;52.524;17.580;2022-12-20T19:33:08;74.28;;;34.60;;
50739;SDS011;36704;52.524;17.580;2022-12-20T19:35:56;69.15;;;29.63;;
50739;SDS011;36704;52.524;17.580;2022-12-20T19:38:50;86.75;;;37.75;;
50739;SDS011;36704;52.524;17.580;2022-12-20T19:41:41;98.07;;;37.92;;
50739;SDS011;36704;52.524;17.580;2022-12-20T19:44:51;100.38;;;37.67;;
50739;SDS011;36704;52.524;17.580;2022-12-20T19:47:38;95.38;;;36.72;;
50739;SDS011;36704;52.524;17.580;2022-12-20T19:50:28;80.45;;;31.80;;
50739;SDS011;36704;52.524;17.580;2022-12-20T19:53:15;82.57;;;35.33;;
50739;SDS011;36704;52.524;17.580;2022-12-20T19:56:02;135.60;;;54.70;;